Time;durP1;ratioP1;P1;durP2;ratioP2;P2;SDS_P1;SDS_P2;PMS_P1;PMS_P2;Temp;Humidity;BMP_temperature;BMP_pressure;BME280_temperature;BME280_humidity;BME280_pressure;Samples;Min_cycle;Max_cycle;Signal;HPM_P1;HPM_P2
2021/08/13 00:01:47;;;;;;;7.67;6.90;;;20.50;99.90;;;;;;5055936;28;20469;-83
2021/08/13 00:04:14;;;;;;;8.10;7.00;;;20.50;99.90;;;;;;5052925;28;20920;-84
2021/08/13 00:06:41;;;;;;;8.63;7.60;;;20.40;99.90;;;;;;5054953;28;20486;-83
2021/08/13 00:09:09;;;;;;;11.83;7.40;;;20.40;99.90;;;;;;5055961;28;20474;-84
2021/08/13 00:11:37;;;;;;;10.70;7.40;;;20.30;99.90;;;;;;5056759;28;20463;-81
2021/08/13 00:14:06;;;;;;;10.33;7.57;;;20.30;99.90;;;;;;5053202;28;20860;-81
2021/08/13 00:16:34;;;;;;;10.10;7.53;;;20.30;99.90;;;;;;5058662;28;20849;-82
2021/08/13 00:19:02;;;;;;;8.93;8.03;;;20.30;99.90;;;;;;5058049;28;20451;-80
2021/08/13 00:21:31;;;;;;;9.03;7.87;;;20.20;99.90;;;;;;5049048;28;20538;-84
2021/08/13 00:23:59;;;;;;;9.17;7.67;;;20.20;99.90;;;;;;5054311;28;20975;-82
2021/08/13 00:26:27;;;;;;;9.47;7.73;;;20.20;99.90;;;;;;5055708;28;20443;-81
2021/08/13 00:28:54;;;;;;;9.83;7.90;;;20.20;99.90;;;;;;5056386;28;20871;-81
2021/08/13 00:31:22;;;;;;;10.13;8.43;;;20.20;99.90;;;;;;5059126;28;20464;-80
2021/08/13 00:33:48;;;;;;;9.00;7.83;;;20.10;99.90;;;;;;5053722;28;20460;-85
2021/08/13 00:36:17;;;;;;;9.00;7.93;;;20.10;99.90;;;;;;5055018;28;20487;-82
2021/08/13 00:38:43;;;;;;;11.87;7.60;;;20.10;99.90;;;;;;5054074;28;20467;-83
2021/08/13 00:41:10;;;;;;;8.90;8.00;;;20.00;99.90;;;;;;5059098;28;20475;-83
2021/08/13 00:43:39;;;;;;;9.03;8.00;;;20.00;99.90;;;;;;5053143;28;20503;-81
2021/08/13 00:46:06;;;;;;;8.60;7.77;;;20.00;99.90;;;;;;5058189;28;21014;-81
2021/08/13 00:48:34;;;;;;;10.43;8.00;;;20.00;99.90;;;;;;5058427;28;20494;-82
2021/08/13 00:51:01;;;;;;;8.93;7.50;;;20.00;99.90;;;;;;5051901;28;20761;-81
2021/08/13 00:53:30;;;;;;;8.30;7.37;;;19.90;99.90;;;;;;5050553;28;20451;-81
2021/08/13 00:55:58;;;;;;;11.63;7.30;;;19.90;99.90;;;;;;5051053;28;20470;-81
2021/08/13 00:58:25;;;;;;;9.80;7.63;;;19.90;99.90;;;;;;5055846;28;20668;-82
2021/08/13 01:00:53;;;;;;;9.83;7.47;;;19.80;99.90;;;;;;5055649;28;20457;-85
2021/08/13 01:03:20;;;;;;;11.50;7.90;;;19.80;99.90;;;;;;5057253;28;20552;-81
2021/08/13 01:05:47;;;;;;;9.97;7.93;;;19.80;99.90;;;;;;5059497;28;20485;-84
2021/08/13 01:08:17;;;;;;;9.43;7.50;;;19.80;99.90;;;;;;5055340;28;20466;-85
2021/08/13 01:10:54;;;;;;;9.60;8.23;;;19.80;99.90;;;;;;5056293;28;20498;-81
2021/08/13 01:13:35;;;;;;;11.43;8.93;;;19.70;99.90;;;;;;5050271;28;21211;-81
2021/08/13 01:16:06;;;;;;;11.20;8.70;;;19.70;99.90;;;;;;5062220;28;20456;-81
2021/08/13 01:18:35;;;;;;;10.53;9.40;;;19.70;99.90;;;;;;5051801;28;20479;-81
2021/08/13 01:21:18;;;;;;;9.60;8.27;;;19.70;99.90;;;;;;5054346;28;20456;-81
2021/08/13 01:23:51;;;;;;;14.33;10.20;;;19.70;99.90;;;;;;5054672;28;20933;-81
2021/08/13 01:26:21;;;;;;;11.50;8.50;;;19.70;99.90;;;;;;5054712;28;20463;-83
2021/08/13 01:29:03;;;;;;;10.23;8.20;;;19.70;99.90;;;;;;5059010;28;20955;-81
2021/08/13 01:31:38;;;;;;;13.20;8.30;;;19.80;99.90;;;;;;5058666;28;20527;-81
2021/08/13 01:34:11;;;;;;;11.77;8.80;;;19.70;99.90;;;;;;5061242;28;20555;-81
2021/08/13 01:36:39;;;;;;;13.60;8.90;;;19.80;99.90;;;;;;5056392;28;20479;-84
2021/08/13 01:39:08;;;;;;;10.70;8.23;;;19.80;99.90;;;;;;5048839;28;20460;-84
2021/08/13 01:41:38;;;;;;;13.73;8.50;;;19.80;99.90;;;;;;5055174;28;20449;-84
2021/08/13 01:44:10;;;;;;;18.00;8.00;;;19.80;99.90;;;;;;5052541;28;20485;-81
2021/08/13 01:46:38;;;;;;;12.97;8.30;;;19.80;99.90;;;;;;5054150;28;20470;-83
2021/08/13 01:49:08;;;;;;;13.80;8.13;;;19.80;99.90;;;;;;5053069;28;20488;-81
2021/08/13 01:51:36;;;;;;;8.70;7.80;;;19.70;99.90;;;;;;5048834;28;20516;-80
2021/08/13 01:54:05;;;;;;;10.43;7.70;;;19.70;99.90;;;;;;5054343;28;20467;-80
2021/08/13 01:56:32;;;;;;;9.40;7.20;;;19.70;99.90;;;;;;5057364;28;20463;-81
2021/08/13 01:59:02;;;;;;;10.80;7.33;;;19.70;99.90;;;;;;5054188;28;20466;-80
2021/08/13 02:01:30;;;;;;;11.90;8.73;;;19.70;99.90;;;;;;5058613;28;20546;-84
2021/08/13 02:03:57;;;;;;;11.50;8.13;;;19.70;99.90;;;;;;5061071;28;20894;-80
2021/08/13 02:06:26;;;;;;;11.57;9.13;;;19.70;99.90;;;;;;5055781;28;20986;-80
2021/08/13 02:08:55;;;;;;;11.80;8.23;;;19.70;99.90;;;;;;5053156;28;20463;-83
2021/08/13 02:11:23;;;;;;;10.27;8.80;;;19.60;99.90;;;;;;5053620;28;20822;-81
2021/08/13 02:13:51;;;;;;;12.37;7.63;;;19.70;99.90;;;;;;5062116;28;20466;-83
2021/08/13 02:16:22;;;;;;;9.77;8.40;;;19.70;99.90;;;;;;5052916;28;21042;-80
2021/08/13 02:18:55;;;;;;;10.13;8.07;;;19.70;99.90;;;;;;5054335;28;20574;-81
2021/08/13 02:21:23;;;;;;;11.13;8.67;;;19.70;99.90;;;;;;5056531;28;20465;-81
2021/08/13 02:23:52;;;;;;;14.50;8.90;;;19.70;99.90;;;;;;5055520;28;20486;-81
2021/08/13 02:26:20;;;;;;;11.10;8.10;;;19.70;99.90;;;;;;5051697;28;20803;-81
2021/08/13 02:28:49;;;;;;;9.70;8.00;;;19.60;99.90;;;;;;5053593;28;20454;-80
2021/08/13 02:31:16;;;;;;;9.27;8.40;;;19.60;99.90;;;;;;5057473;28;20816;-81
2021/08/13 02:33:43;;;;;;;10.80;8.70;;;19.60;99.90;;;;;;5058080;28;20475;-82
2021/08/13 02:36:12;;;;;;;11.20;7.60;;;19.60;99.90;;;;;;5057139;28;20491;-80
2021/08/13 02:38:49;;;;;;;10.07;8.83;;;19.60;99.90;;;;;;5054019;28;20970;-81
2021/08/13 02:41:18;;;;;;;9.60;7.67;;;19.60;99.90;;;;;;5054646;28;20457;-84
2021/08/13 02:43:50;;;;;;;10.07;7.60;;;19.50;99.90;;;;;;5050444;28;20700;-80
2021/08/13 02:46:20;;;;;;;9.33;8.33;;;19.50;99.90;;;;;;5052248;28;20454;-80
2021/08/13 02:48:49;;;;;;;10.10;7.50;;;19.50;99.90;;;;;;5055122;28;20551;-83
2021/08/13 02:51:19;;;;;;;13.33;7.30;;;19.50;99.90;;;;;;5055529;28;20466;-83
2021/08/13 02:53:50;;;;;;;9.57;8.57;;;19.50;99.90;;;;;;5054181;28;20459;-81
2021/08/13 02:56:21;;;;;;;12.03;8.10;;;19.50;99.90;;;;;;5053309;28;20454;-85
2021/08/13 02:58:52;;;;;;;9.23;8.30;;;19.50;99.90;;;;;;5058028;28;20469;-80
2021/08/13 03:01:24;;;;;;;15.10;9.37;;;19.40;99.90;;;;;;5053169;28;20469;-80
2021/08/13 03:03:53;;;;;;;10.33;8.40;;;19.40;99.90;;;;;;5052887;28;20997;-83
2021/08/13 03:06:23;;;;;;;12.93;8.60;;;19.40;99.90;;;;;;5055142;28;20994;-80
2021/08/13 03:08:52;;;;;;;11.90;8.90;;;19.40;99.90;;;;;;5052382;28;21001;-81
2021/08/13 03:11:23;;;;;;;9.10;8.13;;;19.30;99.90;;;;;;5053737;28;20884;-85
2021/08/13 03:13:51;;;;;;;13.10;8.23;;;19.30;99.90;;;;;;5051420;28;20454;-82
2021/08/13 03:16:19;;;;;;;13.70;8.40;;;19.30;99.90;;;;;;5052689;28;20537;-81
2021/08/13 03:18:47;;;;;;;10.33;8.13;;;19.30;99.90;;;;;;5057175;28;20465;-81
2021/08/13 03:21:15;;;;;;;19.47;10.33;;;19.30;99.90;;;;;;5055523;28;20454;-81
2021/08/13 03:23:43;;;;;;;10.03;8.90;;;19.30;99.90;;;;;;5053486;28;20990;-82
2021/08/13 03:26:10;;;;;;;16.40;10.90;;;19.30;99.90;;;;;;5053202;28;21018;-80
2021/08/13 03:28:39;;;;;;;19.00;11.50;;;19.30;99.90;;;;;;5053339;28;20945;-82
2021/08/13 03:31:06;;;;;;;15.10;10.63;;;19.30;99.90;;;;;;5055800;28;20462;-81
2021/08/13 03:33:33;;;;;;;13.20;10.67;;;19.40;99.90;;;;;;5047833;28;20542;-81
2021/08/13 03:36:01;;;;;;;15.07;11.17;;;19.40;99.90;;;;;;5051275;28;20499;-81
2021/08/13 03:38:28;;;;;;;14.60;10.70;;;19.50;99.90;;;;;;5055035;28;20950;-80
2021/08/13 03:40:56;;;;;;;16.03;10.73;;;19.50;99.90;;;;;;5057736;28;20461;-80
2021/08/13 03:43:23;;;;;;;15.17;10.90;;;19.50;99.90;;;;;;5056076;28;20486;-80
2021/08/13 03:45:52;;;;;;;17.00;11.20;;;19.50;99.90;;;;;;5058874;28;20493;-81
2021/08/13 03:48:19;;;;;;;16.60;11.17;;;19.50;99.90;;;;;;5058797;28;20531;-83
2021/08/13 03:50:47;;;;;;;12.97;10.57;;;19.50;99.90;;;;;;5058645;28;20559;-83
2021/08/13 03:53:14;;;;;;;15.80;11.63;;;19.50;99.90;;;;;;5055214;28;20467;-82
2021/08/13 03:55:42;;;;;;;16.60;14.03;;;19.50;99.90;;;;;;5054016;28;20462;-81
2021/08/13 03:58:09;;;;;;;13.30;11.30;;;19.60;99.90;;;;;;5055390;28;20468;-80
2021/08/13 04:00:36;;;;;;;16.77;10.97;;;19.60;99.90;;;;;;5058601;28;20459;-81
2021/08/13 04:03:05;;;;;;;18.23;12.43;;;19.60;99.90;;;;;;5053979;28;20772;-81
2021/08/13 04:05:32;;;;;;;15.77;11.93;;;19.60;99.90;;;;;;5053326;28;20491;-81
2021/08/13 04:08:01;;;;;;;18.47;14.03;;;19.70;99.90;;;;;;5053498;28;20949;-81
2021/08/13 04:10:29;;;;;;;16.17;11.47;;;19.70;99.90;;;;;;5049056;28;20466;-81
2021/08/13 04:12:56;;;;;;;19.50;13.37;;;19.70;99.90;;;;;;5051355;28;20458;-80
2021/08/13 04:15:23;;;;;;;16.37;13.23;;;19.70;99.90;;;;;;5060621;28;20462;-81
2021/08/13 04:17:51;;;;;;;13.60;11.53;;;19.70;99.90;;;;;;5055618;28;20451;-81
2021/08/13 04:20:21;;;;;;;17.67;12.87;;;19.70;99.90;;;;;;5059684;28;20464;-83
2021/08/13 04:22:48;;;;;;;19.73;12.63;;;19.70;99.90;;;;;;5057562;28;20513;-81
2021/08/13 04:25:15;;;;;;;17.90;14.20;;;19.70;99.90;;;;;;5054939;28;20487;-81
2021/08/13 04:27:42;;;;;;;17.07;11.57;;;19.70;99.90;;;;;;5055028;28;20470;-81
2021/08/13 04:30:10;;;;;;;14.40;10.13;;;19.70;99.90;;;;;;5058712;28;20940;-83
2021/08/13 04:32:38;;;;;;;11.60;10.37;;;19.60;99.90;;;;;;5055677;28;20781;-80
2021/08/13 04:35:06;;;;;;;16.43;10.33;;;19.60;99.90;;;;;;5054253;28;20462;-81
2021/08/13 04:37:35;;;;;;;11.67;9.17;;;19.60;99.90;;;;;;5056124;28;20490;-81
2021/08/13 04:40:03;;;;;;;10.90;9.27;;;19.50;99.90;;;;;;5049955;28;20809;-80
2021/08/13 04:42:31;;;;;;;12.90;9.43;;;19.50;99.90;;;;;;5055141;28;20546;-81
2021/08/13 04:44:58;;;;;;;16.87;9.43;;;19.50;99.90;;;;;;5049470;28;20480;-81
2021/08/13 04:47:25;;;;;;;16.50;10.27;;;19.50;99.90;;;;;;5056584;28;20497;-83
2021/08/13 04:49:52;;;;;;;13.50;10.67;;;19.50;99.90;;;;;;5055809;28;20456;-81
2021/08/13 04:52:21;;;;;;;13.10;11.30;;;19.50;99.90;;;;;;5057025;28;20474;-82
2021/08/13 04:54:50;;;;;;;18.17;12.37;;;19.50;99.90;;;;;;5056370;28;20826;-81
2021/08/13 04:57:17;;;;;;;15.73;11.33;;;19.50;99.90;;;;;;5053174;28;20943;-82
2021/08/13 04:59:45;;;;;;;13.90;11.00;;;19.50;99.90;;;;;;5049746;28;20566;-80
2021/08/13 05:02:12;;;;;;;15.20;9.97;;;19.50;99.90;;;;;;5054208;28;20637;-81
2021/08/13 05:04:40;;;;;;;16.97;11.13;;;19.50;99.90;;;;;;5059299;28;20503;-81
2021/08/13 05:07:07;;;;;;;17.47;11.30;;;19.50;99.90;;;;;;5053956;28;20479;-81
2021/08/13 05:09:35;;;;;;;16.43;11.20;;;19.50;99.90;;;;;;5055331;28;20558;-84
2021/08/13 05:12:05;;;;;;;13.90;10.23;;;19.50;99.90;;;;;;5062653;28;20454;-85
2021/08/13 05:14:31;;;;;;;12.03;10.73;;;19.50;99.90;;;;;;5056911;28;20459;-81
2021/08/13 05:16:58;;;;;;;15.20;11.67;;;19.60;99.90;;;;;;5054589;28;20976;-81
2021/08/13 05:19:25;;;;;;;14.90;10.63;;;19.60;99.90;;;;;;5053069;28;20459;-81
2021/08/13 05:21:53;;;;;;;17.37;12.40;;;19.60;99.90;;;;;;5058216;28;20453;-83
2021/08/13 05:24:20;;;;;;;15.37;12.13;;;19.60;99.90;;;;;;5060439;28;20480;-81
2021/08/13 05:26:47;;;;;;;17.93;11.93;;;19.60;99.90;;;;;;5056909;28;20538;-81
2021/08/13 05:29:17;;;;;;;17.13;13.80;;;19.60;99.90;;;;;;5058279;28;20813;-85
2021/08/13 05:31:44;;;;;;;17.33;14.20;;;19.70;99.90;;;;;;5055732;28;20454;-82
2021/08/13 05:34:11;;;;;;;17.87;14.17;;;19.70;99.90;;;;;;5052343;28;20462;-81
2021/08/13 05:36:39;;;;;;;17.37;13.60;;;19.70;99.90;;;;;;5057136;28;20514;-81
2021/08/13 05:39:07;;;;;;;19.00;14.33;;;19.80;99.90;;;;;;5056941;28;20474;-82
2021/08/13 05:41:35;;;;;;;16.87;13.13;;;19.80;99.90;;;;;;5054503;28;20554;-81
2021/08/13 05:44:03;;;;;;;18.83;13.60;;;19.80;99.90;;;;;;5052276;28;20478;-81
2021/08/13 05:46:31;;;;;;;20.10;14.57;;;19.90;99.90;;;;;;5052835;28;20968;-81
2021/08/13 05:49:00;;;;;;;25.17;14.73;;;19.90;99.90;;;;;;5048295;28;20546;-82
2021/08/13 05:51:27;;;;;;;18.13;15.27;;;20.00;99.90;;;;;;5053250;28;20464;-83
2021/08/13 05:53:55;;;;;;;18.10;16.20;;;20.00;99.90;;;;;;5051513;28;20458;-81
2021/08/13 05:56:22;;;;;;;22.83;16.27;;;20.10;99.90;;;;;;5052710;28;20498;-82
2021/08/13 05:58:49;;;;;;;17.00;15.10;;;20.20;99.90;;;;;;5050475;28;20546;-81
2021/08/13 06:01:15;;;;;;;24.97;18.60;;;20.20;99.90;;;;;;5053815;28;20498;-81
2021/08/13 06:03:44;;;;;;;23.37;16.87;;;20.20;99.90;;;;;;5053727;28;20466;-82
2021/08/13 06:06:11;;;;;;;23.73;18.13;;;20.30;99.90;;;;;;5053293;28;20522;-81
2021/08/13 06:08:39;;;;;;;22.73;17.40;;;20.40;99.90;;;;;;5053613;28;20460;-80
2021/08/13 06:11:06;;;;;;;20.20;17.23;;;20.40;99.90;;;;;;5053779;28;20461;-81
2021/08/13 06:13:33;;;;;;;21.43;17.67;;;20.50;99.90;;;;;;5047887;28;20464;-81
2021/08/13 06:16:00;;;;;;;26.40;19.70;;;20.50;99.90;;;;;;5056089;28;20676;-83
2021/08/13 06:18:28;;;;;;;21.60;19.13;;;20.60;99.90;;;;;;5050711;28;20511;-69
2021/08/13 06:20:56;;;;;;;22.33;20.00;;;20.60;99.90;;;;;;5056193;28;20459;-69
2021/08/13 06:23:23;;;;;;;22.20;18.67;;;20.60;99.90;;;;;;5053696;28;20503;-69
2021/08/13 06:25:50;;;;;;;24.50;19.47;;;20.70;99.90;;;;;;5056565;28;20499;-70
2021/08/13 06:28:17;;;;;;;24.00;20.03;;;20.80;99.90;;;;;;5057124;28;20459;-70
2021/08/13 06:30:44;;;;;;;23.27;19.67;;;20.80;99.90;;;;;;5056246;28;20465;-69
2021/08/13 06:33:11;;;;;;;31.17;22.50;;;20.90;99.90;;;;;;5054732;28;20454;-69
2021/08/13 06:35:38;;;;;;;29.70;23.30;;;20.90;99.90;;;;;;5053771;28;20486;-69
2021/08/13 06:38:07;;;;;;;27.73;23.70;;;20.90;99.90;;;;;;5055284;28;20487;-70
2021/08/13 06:40:34;;;;;;;29.27;24.70;;;21.00;99.90;;;;;;5056560;28;20811;-69
2021/08/13 06:43:01;;;;;;;27.77;24.17;;;21.00;99.90;;;;;;5056318;28;20501;-69
2021/08/13 06:45:28;;;;;;;26.80;23.17;;;21.00;99.90;;;;;;5055156;28;20501;-70
2021/08/13 06:47:55;;;;;;;34.67;25.67;;;21.10;99.90;;;;;;5053445;28;20977;-69
2021/08/13 06:50:22;;;;;;;32.07;26.50;;;21.10;99.90;;;;;;5051672;28;20455;-70
2021/08/13 06:52:49;;;;;;;31.33;26.73;;;21.10;99.90;;;;;;5056628;28;20459;-70
2021/08/13 06:55:18;;;;;;;30.63;25.00;;;21.10;99.90;;;;;;5053505;28;20487;-69
2021/08/13 06:57:44;;;;;;;32.40;26.97;;;21.20;99.90;;;;;;5057156;28;20451;-70
2021/08/13 07:00:13;;;;;;;39.43;29.47;;;21.20;99.90;;;;;;5055004;28;20466;-71
2021/08/13 07:02:41;;;;;;;38.77;30.43;;;21.20;99.90;;;;;;5054873;28;20456;-70
2021/08/13 07:05:09;;;;;;;36.43;27.80;;;21.30;99.90;;;;;;5060872;28;20846;-74
2021/08/13 07:07:36;;;;;;;33.40;26.30;;;21.30;99.90;;;;;;5049251;28;20451;-70
2021/08/13 07:10:05;;;;;;;33.97;27.63;;;21.40;99.90;;;;;;5056377;28;20900;-70
2021/08/13 07:12:34;;;;;;;35.20;27.23;;;21.40;99.90;;;;;;5061218;28;20462;-70
2021/08/13 07:15:01;;;;;;;31.40;24.83;;;21.40;99.90;;;;;;5059739;28;20946;-69
2021/08/13 07:17:28;;;;;;;28.40;24.57;;;21.40;99.90;;;;;;5059798;28;20454;-69
2021/08/13 07:19:55;;;;;;;34.23;26.03;;;21.50;99.90;;;;;;5055392;28;20540;-69
2021/08/13 07:22:21;;;;;;;27.57;23.53;;;21.50;99.90;;;;;;5063127;28;20832;-69
2021/08/13 07:24:48;;;;;;;30.60;24.83;;;21.60;99.90;;;;;;5058102;28;20851;-69
2021/08/13 07:27:15;;;;;;;44.50;24.07;;;21.60;99.90;;;;;;5055031;28;20504;-81
2021/08/13 07:29:43;;;;;;;32.87;23.97;;;21.70;99.90;;;;;;5052963;28;20558;-82
2021/08/13 07:32:10;;;;;;;30.43;23.73;;;21.70;99.90;;;;;;5055657;28;21035;-84
2021/08/13 07:34:37;;;;;;;34.60;24.53;;;21.80;99.90;;;;;;5057548;28;20954;-85
2021/08/13 07:37:04;;;;;;;34.40;22.87;;;21.80;99.90;;;;;;5059003;28;20494;-82
2021/08/13 07:39:31;;;;;;;23.03;19.77;;;21.90;99.90;;;;;;5053490;28;20462;-84
2021/08/13 07:41:58;;;;;;;22.30;18.37;;;21.90;99.90;;;;;;5054262;28;20477;-81
2021/08/13 07:44:25;;;;;;;25.00;18.63;;;22.00;99.90;;;;;;5053814;28;20461;-81
2021/08/13 07:46:53;;;;;;;21.30;17.83;;;22.00;99.90;;;;;;5058992;28;20466;-85
2021/08/13 07:49:20;;;;;;;19.80;16.33;;;22.00;99.90;;;;;;5054474;28;20470;-84
2021/08/13 07:51:47;;;;;;;26.50;17.20;;;22.00;99.90;;;;;;5055038;28;20969;-82
2021/08/13 07:54:14;;;;;;;23.40;16.90;;;22.10;99.90;;;;;;5049366;28;20460;-85
2021/08/13 07:56:40;;;;;;;20.40;16.90;;;22.10;99.90;;;;;;5056415;28;20470;-81
2021/08/13 07:59:07;;;;;;;20.30;15.80;;;22.10;99.90;;;;;;5057644;28;20533;-81
2021/08/13 08:01:34;;;;;;;18.77;14.30;;;22.10;99.90;;;;;;5054960;28;20456;-83
2021/08/13 08:04:02;;;;;;;18.20;14.37;;;22.10;99.90;;;;;;5050664;28;20812;-82
2021/08/13 08:06:31;;;;;;;16.77;14.60;;;22.20;99.90;;;;;;5055794;28;20986;-83
2021/08/13 08:08:58;;;;;;;22.63;14.97;;;22.20;99.90;;;;;;5051811;28;20460;-83
2021/08/13 08:11:25;;;;;;;19.07;15.43;;;22.20;99.90;;;;;;5052928;28;20474;-82
2021/08/13 08:13:52;;;;;;;17.90;13.93;;;22.20;99.90;;;;;;5047223;28;20908;-82
2021/08/13 08:16:19;;;;;;;21.13;13.87;;;22.20;99.90;;;;;;5057129;28;20824;-84
2021/08/13 08:18:46;;;;;;;16.30;14.40;;;22.30;99.90;;;;;;5058232;28;20472;-82
2021/08/13 08:21:14;;;;;;;17.60;12.97;;;22.30;99.90;;;;;;5053326;28;20539;-82
2021/08/13 08:23:41;;;;;;;15.30;12.27;;;22.40;99.90;;;;;;5048246;28;20468;-82
2021/08/13 08:26:08;;;;;;;17.70;12.20;;;22.40;99.90;;;;;;5052428;28;20833;-82
2021/08/13 08:28:35;;;;;;;12.37;11.10;;;22.40;99.90;;;;;;5058384;28;20806;-82
2021/08/13 08:31:02;;;;;;;11.70;10.20;;;22.50;99.90;;;;;;5058049;28;20469;-82
2021/08/13 08:33:29;;;;;;;12.40;9.60;;;22.50;99.90;;;;;;5047378;28;20482;-82
2021/08/13 08:35:55;;;;;;;12.20;8.80;;;22.60;99.90;;;;;;5053434;28;20529;-82
2021/08/13 08:38:24;;;;;;;11.80;8.80;;;22.60;99.90;;;;;;5054254;28;20462;-82
2021/08/13 08:40:52;;;;;;;10.30;7.43;;;22.70;99.90;;;;;;5052410;28;20474;-81
2021/08/13 08:43:19;;;;;;;7.67;6.67;;;22.70;99.90;;;;;;5050959;28;21010;-82
2021/08/13 08:45:46;;;;;;;9.90;7.60;;;22.80;99.90;;;;;;5055971;28;20483;-84
2021/08/13 08:48:13;;;;;;;10.93;7.73;;;22.80;99.90;;;;;;5053567;28;20470;-83
2021/08/13 08:50:43;;;;;;;9.10;7.40;;;22.90;99.90;;;;;;5056029;28;20460;-83
2021/08/13 08:53:15;;;;;;;8.80;6.60;;;22.90;99.90;;;;;;5052654;28;20534;-82
2021/08/13 08:55:43;;;;;;;9.17;7.60;;;23.00;99.90;;;;;;5052409;28;20459;-82
2021/08/13 08:58:11;;;;;;;10.23;6.77;;;23.00;99.90;;;;;;5049966;28;20539;-84
2021/08/13 09:00:38;;;;;;;8.47;6.53;;;23.10;99.90;;;;;;5052255;28;20459;-82
2021/08/13 09:03:05;;;;;;;8.23;6.80;;;23.10;99.90;;;;;;5046462;28;20533;-82
2021/08/13 09:05:32;;;;;;;11.47;9.10;;;23.10;99.90;;;;;;5046495;28;20502;-85
2021/08/13 09:07:59;;;;;;;8.03;7.03;;;23.10;99.90;;;;;;5052074;28;20605;-82
2021/08/13 09:10:26;;;;;;;7.77;6.97;;;23.20;99.90;;;;;;5052940;28;20459;-84
2021/08/13 09:12:55;;;;;;;8.10;6.73;;;23.20;99.90;;;;;;5047849;28;20516;-81
2021/08/13 09:15:30;;;;;;;10.90;6.43;;;23.30;99.90;;;;;;5052050;28;20464;-84
2021/08/13 09:18:14;;;;;;;8.87;6.40;;;23.30;99.90;;;;;;5059541;28;20451;-83
2021/08/13 09:20:43;;;;;;;7.50;6.40;;;23.30;99.90;;;;;;5052401;28;20993;-81
2021/08/13 09:23:10;;;;;;;5.90;5.30;;;23.30;99.90;;;;;;5053374;28;20811;-81
2021/08/13 09:25:37;;;;;;;5.27;4.47;;;23.40;99.90;;;;;;5048800;28;20482;-81
2021/08/13 09:28:06;;;;;;;6.03;4.20;;;23.40;99.90;;;;;;5057878;28;20886;-81
2021/08/13 09:30:32;;;;;;;4.90;4.20;;;23.40;99.90;;;;;;5048417;28;20499;-81
2021/08/13 09:33:04;;;;;;;5.40;3.53;;;23.50;99.90;;;;;;5052297;28;20889;-84
2021/08/13 09:35:35;;;;;;;4.37;3.70;;;23.50;99.90;;;;;;5051505;28;20482;-81
2021/08/13 09:38:04;;;;;;;4.60;4.20;;;23.60;99.90;;;;;;5051825;28;20942;-81
2021/08/13 09:40:38;;;;;;;3.13;2.83;;;23.70;99.90;;;;;;5053668;28;20474;-82
2021/08/13 09:43:07;;;;;;;3.70;3.40;;;23.70;99.90;;;;;;5053297;28;20459;-83
2021/08/13 09:45:35;;;;;;;7.43;4.10;;;23.80;99.90;;;;;;5057499;28;20516;-81
2021/08/13 09:48:02;;;;;;;3.30;3.00;;;23.90;99.90;;;;;;5046256;28;20467;-82
2021/08/13 09:50:38;;;;;;;6.00;4.10;;;23.90;99.90;;;;;;5051815;28;20456;-82
2021/08/13 09:53:09;;;;;;;6.03;3.97;;;24.00;99.90;;;;;;5051080;28;20529;-81
2021/08/13 09:55:36;;;;;;;3.83;3.40;;;24.10;99.90;;;;;;5050827;28;20910;-82
2021/08/13 09:58:05;;;;;;;4.77;2.97;;;24.20;99.90;;;;;;5056114;28;20451;-81
2021/08/13 10:00:43;;;;;;;5.03;3.50;;;24.30;99.90;;;;;;5053847;28;20455;-83
2021/08/13 10:03:10;;;;;;;4.33;3.93;;;24.40;99.90;;;;;;5052465;28;20459;-81
2021/08/13 10:05:38;;;;;;;5.13;3.30;;;24.40;99.90;;;;;;5051973;28;21080;-84
2021/08/13 10:08:06;;;;;;;3.80;3.43;;;24.40;99.90;;;;;;5051104;28;20466;-81
2021/08/13 16:05:42;;;;;;;6.27;4.90;;;25.10;99.90;;;;;;4996005;22;20496;-58
2021/08/13 16:08:09;;;;;;;6.17;4.23;;;25.10;99.90;;;;;;5014606;28;20460;-58
2021/08/13 16:10:36;;;;;;;6.90;5.13;;;25.10;99.90;;;;;;5021220;28;20999;-57
2021/08/13 16:13:06;;;;;;;5.40;4.70;;;25.10;99.90;;;;;;5010888;28;20461;-58
2021/08/13 16:15:33;;;;;;;5.73;5.10;;;25.00;99.90;;;;;;5016886;28;20463;-56
2021/08/13 16:17:59;;;;;;;10.30;4.70;;;25.10;99.90;;;;;;5014927;28;20491;-57
2021/08/13 16:20:26;;;;;;;5.73;4.93;;;25.00;99.90;;;;;;5016136;28;20460;-58
2021/08/13 16:22:53;;;;;;;5.87;4.73;;;25.00;99.90;;;;;;5013897;28;20465;-57
2021/08/13 16:25:20;;;;;;;6.00;5.33;;;25.00;99.90;;;;;;5018526;28;20821;-57
2021/08/13 16:27:47;;;;;;;7.17;4.90;;;25.00;99.90;;;;;;5020459;28;20468;-58
2021/08/13 16:30:15;;;;;;;6.97;4.90;;;24.90;99.90;;;;;;5019534;28;20460;-57
2021/08/13 16:32:42;;;;;;;6.67;5.30;;;24.90;99.90;;;;;;5013695;28;20840;-58
2021/08/13 16:35:10;;;;;;;5.43;4.60;;;24.90;99.90;;;;;;5019977;28;21094;-58
2021/08/13 16:37:36;;;;;;;8.00;5.30;;;24.90;99.90;;;;;;5020721;28;20492;-59
2021/08/13 16:40:04;;;;;;;5.27;4.77;;;24.90;99.90;;;;;;5021898;28;20473;-58
2021/08/13 16:42:31;;;;;;;7.30;4.87;;;24.80;99.90;;;;;;5017210;28;20460;-58
2021/08/13 16:44:57;;;;;;;6.83;5.03;;;24.80;99.90;;;;;;5019841;28;20464;-57
2021/08/13 16:47:26;;;;;;;5.30;4.20;;;24.80;99.90;;;;;;5014900;28;20464;-58
2021/08/13 16:49:52;;;;;;;7.40;5.10;;;24.70;99.90;;;;;;5016881;28;20469;-58
2021/08/13 16:52:19;;;;;;;7.73;4.80;;;24.60;99.90;;;;;;5012766;28;20479;-58
2021/08/13 16:54:46;;;;;;;5.43;4.70;;;24.60;99.90;;;;;;5026943;28;20464;-58
2021/08/13 16:57:12;;;;;;;7.23;4.90;;;24.60;99.90;;;;;;5023188;28;20468;-58
2021/08/13 16:59:39;;;;;;;6.70;4.63;;;24.50;99.90;;;;;;5022388;28;20848;-55
2021/08/13 17:02:06;;;;;;;6.90;5.07;;;24.50;99.90;;;;;;5018512;28;20469;-57
2021/08/13 17:04:34;;;;;;;9.07;4.80;;;24.50;99.90;;;;;;5018426;28;20467;-58
2021/08/13 17:07:01;;;;;;;6.07;5.23;;;24.50;99.90;;;;;;5012466;28;20484;-57
2021/08/13 17:09:28;;;;;;;6.20;4.80;;;24.40;99.90;;;;;;5013655;28;20463;-58
2021/08/13 17:11:54;;;;;;;5.77;4.70;;;24.40;99.90;;;;;;5017905;28;20795;-57
2021/08/13 17:14:21;;;;;;;6.03;5.43;;;24.40;99.90;;;;;;5012289;28;20471;-57
2021/08/13 17:16:48;;;;;;;6.47;5.40;;;24.30;99.90;;;;;;5010301;28;20472;-58
2021/08/13 17:19:14;;;;;;;5.47;4.47;;;24.30;99.90;;;;;;5018526;28;20833;-58
2021/08/13 17:21:43;;;;;;;7.93;4.63;;;24.20;99.90;;;;;;5015345;28;20839;-57
2021/08/13 17:24:09;;;;;;;9.40;4.67;;;24.20;99.90;;;;;;5021188;28;20472;-57
2021/08/13 17:26:36;;;;;;;9.00;4.30;;;24.20;99.90;;;;;;5013452;28;20476;-58
2021/08/13 17:29:03;;;;;;;6.80;4.50;;;24.20;99.90;;;;;;5019037;28;20464;-58
2021/08/13 17:31:30;;;;;;;7.33;5.23;;;24.20;99.90;;;;;;5016000;28;20487;-58
2021/08/13 17:33:57;;;;;;;5.63;4.47;;;24.20;99.90;;;;;;5016546;28;20940;-55
2021/08/13 17:36:24;;;;;;;5.57;4.43;;;24.10;99.90;;;;;;5021860;28;20950;-57
2021/08/13 17:38:52;;;;;;;7.90;4.63;;;24.10;99.90;;;;;;5018218;28;20488;-59
2021/08/13 17:41:19;;;;;;;11.97;5.23;;;24.10;99.90;;;;;;5019662;28;20498;-58
2021/08/13 17:43:45;;;;;;;6.50;5.30;;;24.10;99.90;;;;;;5011529;28;20475;-57
2021/08/13 17:46:12;;;;;;;5.73;4.47;;;24.10;99.90;;;;;;5011441;28;20465;-58
2021/08/13 17:48:39;;;;;;;7.10;5.37;;;24.10;99.90;;;;;;5015593;28;20832;-58
2021/08/13 17:51:06;;;;;;;7.23;4.40;;;24.00;99.90;;;;;;5010140;28;20460;-57
2021/08/13 17:53:32;;;;;;;6.60;4.03;;;24.00;99.90;;;;;;5017286;28;20478;-56
2021/08/13 17:56:00;;;;;;;4.47;4.07;;;24.00;99.90;;;;;;5020333;28;20499;-55
2021/08/13 17:58:31;;;;;;;7.43;5.00;;;24.00;99.90;;;;;;5015564;28;20473;-57
2021/08/13 18:00:59;;;;;;;6.10;4.43;;;24.00;99.90;;;;;;5020178;28;20464;-59
2021/08/13 18:03:25;;;;;;;8.70;4.60;;;24.00;99.90;;;;;;5022924;28;20457;-57
2021/08/13 18:05:52;;;;;;;5.03;4.50;;;24.00;99.90;;;;;;5020741;28;21044;-57
2021/08/13 18:08:19;;;;;;;7.40;4.67;;;23.90;99.90;;;;;;5025964;28;20464;-58
2021/08/13 18:10:46;;;;;;;10.33;4.80;;;23.90;99.90;;;;;;5021098;28;20474;-57
2021/08/13 18:13:14;;;;;;;5.60;4.37;;;23.80;99.90;;;;;;5022599;28;20464;-57
2021/08/13 18:15:41;;;;;;;7.43;4.70;;;23.80;99.90;;;;;;5017733;28;20468;-58
2021/08/13 18:18:08;;;;;;;7.17;5.50;;;23.80;99.90;;;;;;5017504;28;20774;-58
2021/08/13 18:20:36;;;;;;;7.80;5.00;;;23.70;99.90;;;;;;5020777;28;20827;-59
2021/08/13 18:23:02;;;;;;;9.03;4.63;;;23.70;99.90;;;;;;5022710;28;20468;-59
2021/08/13 18:25:29;;;;;;;8.87;4.70;;;23.60;99.90;;;;;;5013696;28;20487;-57
2021/08/13 18:27:56;;;;;;;13.00;10.00;;;23.60;99.90;;;;;;5022221;28;20468;-57
2021/08/13 18:30:24;;;;;;;34.10;25.00;;;23.50;99.90;;;;;;5016633;28;20456;-57
2021/08/13 18:32:52;;;;;;;17.80;15.90;;;23.50;99.90;;;;;;5020362;28;20465;-56
2021/08/13 18:35:18;;;;;;;9.57;7.67;;;23.50;99.90;;;;;;5023424;28;20890;-53